Terminal Aerodrome Forecast
Issued by NWS

Home | Current Version | Previous Version | Text Only | Print | Product List | Glossary On
Versions: 1 2 3 4 5 6 7 8 9 10 11 12 13 14
000
FTUS41 KBTV 232000 AAB
TAFMPV
TAF AMD
KMPV 232032Z 2321/2418 32010G20KT P6SM VCSH BKN040 OVC080
      TEMPO 2321/2322 3/4SM +TSRA BR BKN007CB
     FM232300 31010KT P6SM SCT025 BKN050
     FM240500 35008KT P6SM SCT025 BKN050
     FM241300 34010KT P6SM SCT060=

USA.gov is the U.S. government's official web portal to all federal, state and local government web resources and services.